createdAt,value
2018-11-14T00:00:07.880Z,202
2018-11-14T00:00:20.310Z,202
2018-11-14T00:00:32.735Z,211
2018-11-14T00:00:45.164Z,255
2018-11-14T00:00:57.554Z,254
2018-11-14T00:01:10.044Z,213
2018-11-14T00:01:22.673Z,180
2018-11-14T00:01:35.056Z,175
2018-11-14T00:01:47.441Z,167
2018-11-14T00:01:59.828Z,212
2018-11-14T00:02:12.246Z,225
2018-11-14T00:02:24.657Z,213
2018-11-14T00:02:37.043Z,187
2018-11-14T00:02:49.426Z,186
2018-11-14T00:03:01.900Z,218
2018-11-14T00:03:14.309Z,225
2018-11-14T00:03:26.841Z,225
2018-11-14T00:03:39.283Z,217
2018-11-14T00:03:51.707Z,217
2018-11-14T00:04:04.099Z,217
2018-11-14T00:04:16.525Z,160
2018-11-14T00:04:28.923Z,182
2018-11-14T00:04:41.315Z,176
2018-11-14T00:04:53.874Z,178
2018-11-14T00:05:06.384Z,204
2018-11-14T00:05:18.787Z,205
2018-11-14T00:05:31.297Z,221
2018-11-14T00:05:43.711Z,205
2018-11-14T00:05:56.090Z,215
2018-11-14T00:06:08.486Z,218
2018-11-14T00:06:20.906Z,215
2018-11-14T00:06:33.302Z,209
2018-11-14T00:06:45.764Z,181
2018-11-14T00:06:58.164Z,175
2018-11-14T00:07:10.647Z,186
2018-11-14T00:07:23.052Z,181
2018-11-14T00:07:35.463Z,191
2018-11-14T00:07:47.839Z,213
2018-11-14T00:08:00.241Z,213
2018-11-14T00:08:12.643Z,213
2018-11-14T00:08:25.042Z,213
2018-11-14T00:08:37.448Z,213
2018-11-14T00:08:49.887Z,213
2018-11-14T00:09:02.318Z,213
2018-11-14T00:09:14.771Z,213
2018-11-14T00:09:27.680Z,185
2018-11-14T00:09:41.417Z,177
2018-11-14T00:09:54.772Z,175
2018-11-14T00:10:07.657Z,175
2018-11-14T00:10:22.836Z,175
2018-11-14T00:10:35.255Z,175
2018-11-14T00:10:47.743Z,234
2018-11-14T00:11:00.154Z,234
2018-11-14T00:11:12.572Z,233
2018-11-14T00:11:24.960Z,213
2018-11-14T00:11:37.365Z,212
2018-11-14T00:11:50.094Z,212
2018-11-14T00:12:02.483Z,212
2018-11-14T00:12:14.934Z,212
2018-11-14T00:12:27.322Z,204
2018-11-14T00:12:39.715Z,192
2018-11-14T00:12:52.118Z,192
2018-11-14T00:13:04.512Z,192
2018-11-14T00:13:16.925Z,192
2018-11-14T00:13:29.309Z,192
2018-11-14T00:13:41.685Z,192
2018-11-14T00:13:54.132Z,192
2018-11-14T00:14:06.721Z,192
2018-11-14T00:14:19.102Z,209
2018-11-14T00:14:31.498Z,217
2018-11-14T00:14:43.921Z,215
2018-11-14T00:14:56.348Z,210
2018-11-14T00:15:08.755Z,209
2018-11-14T00:15:21.208Z,214
2018-11-14T00:15:33.602Z,198
2018-11-14T00:15:45.998Z,178
2018-11-14T00:15:58.958Z,205
2018-11-14T00:16:11.512Z,199
2018-11-14T00:16:23.914Z,199
2018-11-14T00:16:36.308Z,197
2018-11-14T00:16:48.700Z,197
2018-11-14T00:17:01.090Z,197
2018-11-14T00:17:13.486Z,197
2018-11-14T00:17:25.881Z,197
2018-11-14T00:17:38.275Z,197
2018-11-14T00:17:50.675Z,197
2018-11-14T00:18:03.113Z,197
2018-11-14T00:18:15.496Z,202
2018-11-14T00:18:27.879Z,201
2018-11-14T00:18:40.265Z,196
2018-11-14T00:18:52.651Z,196
2018-11-14T00:19:05.046Z,196
2018-11-14T00:19:17.649Z,196
2018-11-14T00:19:30.979Z,205
2018-11-14T00:19:44.395Z,205
2018-11-14T00:19:57.425Z,205
2018-11-14T00:20:09.997Z,205
2018-11-14T00:20:23.153Z,227
2018-11-14T00:20:35.538Z,227
2018-11-14T00:20:47.933Z,171
2018-11-14T00:21:00.342Z,182
2018-11-14T00:21:13.562Z,210
2018-11-14T00:21:25.956Z,225
2018-11-14T00:21:38.335Z,167
2018-11-14T00:21:51.866Z,182
2018-11-14T00:22:04.251Z,182
2018-11-14T00:22:16.664Z,184
2018-11-14T00:22:29.059Z,200
2018-11-14T00:22:41.478Z,198
2018-11-14T00:22:53.949Z,198
2018-11-14T00:23:06.355Z,198
2018-11-14T00:23:18.847Z,182
2018-11-14T00:23:31.245Z,182
2018-11-14T00:23:43.643Z,182
2018-11-14T00:23:56.097Z,182
2018-11-14T00:24:08.505Z,184
2018-11-14T00:24:21.045Z,184
2018-11-14T00:24:34.094Z,179
2018-11-14T00:24:47.279Z,192
2018-11-14T00:25:01.164Z,229
2018-11-14T00:25:13.605Z,231
2018-11-14T00:25:26.186Z,232
2018-11-14T00:25:38.579Z,239
2018-11-14T00:25:50.965Z,239
2018-11-14T00:26:03.369Z,239
2018-11-14T00:26:15.823Z,239
2018-11-14T00:26:28.255Z,238
2018-11-14T00:26:40.948Z,217
2018-11-14T00:26:55.256Z,217
2018-11-14T00:27:07.643Z,217
2018-11-14T00:27:20.283Z,207
2018-11-14T00:27:32.686Z,173
2018-11-14T00:27:45.397Z,172
2018-11-14T00:27:58.738Z,169
2018-11-14T00:28:12.800Z,161
2018-11-14T00:28:25.577Z,239
2018-11-14T00:28:38.762Z,231
2018-11-14T00:28:51.151Z,217
2018-11-14T00:29:04.166Z,181
2018-11-14T00:29:16.772Z,198
2018-11-14T00:29:30.568Z,175
2018-11-14T00:29:44.128Z,184
2018-11-14T00:29:56.542Z,196
2018-11-14T00:30:08.971Z,205
2018-11-14T00:30:22.141Z,205
2018-11-14T00:30:34.536Z,205
2018-11-14T00:30:46.939Z,205
2018-11-14T00:30:59.325Z,205
2018-11-14T00:31:11.727Z,215
2018-11-14T00:31:24.124Z,224
2018-11-14T00:31:36.511Z,224
2018-11-14T00:31:48.972Z,224
2018-11-14T00:32:01.392Z,224
2018-11-14T00:32:13.804Z,217
2018-11-14T00:32:26.248Z,242
2018-11-14T00:32:38.650Z,242
2018-11-14T00:32:51.060Z,242
2018-11-14T00:33:03.880Z,242
2018-11-14T00:33:18.467Z,242
2018-11-14T00:33:31.005Z,242
2018-11-14T00:33:43.498Z,242
2018-11-14T00:33:56.020Z,242
2018-11-14T00:34:08.504Z,242
2018-11-14T00:34:20.937Z,259
2018-11-14T00:34:33.914Z,208
2018-11-14T00:34:47.005Z,215
2018-11-14T00:35:01.765Z,205
2018-11-14T00:35:14.174Z,205
2018-11-14T00:35:26.603Z,205
2018-11-14T00:35:39.650Z,205
2018-11-14T00:35:54.085Z,205
2018-11-14T00:36:06.493Z,205
2018-11-14T00:36:18.909Z,205
2018-11-14T00:36:31.453Z,210
2018-11-14T00:36:43.841Z,209
2018-11-14T00:36:56.525Z,194
2018-11-14T00:37:09.023Z,175
2018-11-14T00:37:21.410Z,185
2018-11-14T00:37:33.818Z,184
2018-11-14T00:37:46.279Z,192
2018-11-14T00:37:58.680Z,188
2018-11-14T00:38:11.071Z,188
2018-11-14T00:38:23.450Z,253
2018-11-14T00:38:35.848Z,253
2018-11-14T00:38:48.264Z,253
2018-11-14T00:39:00.657Z,222
2018-11-14T00:39:13.038Z,239
2018-11-14T00:39:25.418Z,200
2018-11-14T00:39:37.851Z,246
2018-11-14T00:39:50.262Z,196
2018-11-14T00:40:02.666Z,186
2018-11-14T00:40:15.065Z,186
2018-11-14T00:40:27.480Z,220
2018-11-14T00:40:39.872Z,248
2018-11-14T00:40:52.289Z,194
2018-11-14T00:41:04.787Z,192
2018-11-14T00:41:17.183Z,192
2018-11-14T00:41:29.661Z,192
2018-11-14T00:41:42.060Z,192
2018-11-14T00:41:54.449Z,181
2018-11-14T00:42:06.852Z,204
2018-11-14T00:42:19.249Z,194
2018-11-14T00:42:31.629Z,187
2018-11-14T00:42:44.163Z,187
2018-11-14T00:42:56.556Z,187
2018-11-14T00:43:09.004Z,197
2018-11-14T00:43:21.394Z,197
2018-11-14T00:43:33.792Z,197
2018-11-14T00:43:46.171Z,197
2018-11-14T00:43:58.547Z,180
2018-11-14T00:44:10.950Z,177
2018-11-14T00:44:23.482Z,177
2018-11-14T00:44:35.861Z,193
2018-11-14T00:44:48.254Z,216
2018-11-14T00:45:00.653Z,257
2018-11-14T00:45:13.064Z,257
2018-11-14T00:45:25.703Z,257
2018-11-14T00:45:38.096Z,190
2018-11-14T00:45:50.482Z,189
2018-11-14T00:46:02.866Z,175
2018-11-14T00:46:15.248Z,171
2018-11-14T00:46:27.638Z,174
2018-11-14T00:46:40.069Z,190
2018-11-14T00:46:52.448Z,190
2018-11-14T00:47:04.975Z,190
2018-11-14T00:47:17.359Z,186
2018-11-14T00:47:29.761Z,184
2018-11-14T00:47:42.287Z,218
2018-11-14T00:47:54.718Z,232
2018-11-14T00:48:07.123Z,236
2018-11-14T00:48:19.512Z,232
2018-11-14T00:48:31.903Z,254
2018-11-14T00:48:44.298Z,287
2018-11-14T00:48:56.702Z,230
2018-11-14T00:49:09.095Z,241
2018-11-14T00:49:21.473Z,239
2018-11-14T00:49:33.853Z,239
2018-11-14T00:49:46.372Z,166
2018-11-14T00:49:58.942Z,166
2018-11-14T00:50:11.338Z,166
2018-11-14T00:50:23.787Z,240
2018-11-14T00:50:36.169Z,286
2018-11-14T00:50:48.570Z,207
2018-11-14T00:51:00.954Z,231
2018-11-14T00:51:13.357Z,214
2018-11-14T00:51:25.752Z,214
2018-11-14T00:51:38.137Z,214
2018-11-14T00:51:50.583Z,198
2018-11-14T00:52:03.148Z,198
2018-11-14T00:52:15.803Z,198
2018-11-14T00:52:28.180Z,192
2018-11-14T00:52:40.584Z,196
2018-11-14T00:52:52.981Z,196
2018-11-14T00:53:05.386Z,196
2018-11-14T00:53:17.803Z,204
2018-11-14T00:53:30.227Z,196
2018-11-14T00:53:42.809Z,199
2018-11-14T00:53:55.206Z,200
2018-11-14T00:54:07.598Z,200
2018-11-14T00:54:19.998Z,200
2018-11-14T00:54:32.387Z,200
2018-11-14T00:54:44.874Z,205
2018-11-14T00:54:57.269Z,205
2018-11-14T00:55:09.684Z,181
2018-11-14T00:55:22.077Z,208
2018-11-14T00:55:34.455Z,223
2018-11-14T00:55:46.861Z,220
2018-11-14T00:55:59.250Z,195
2018-11-14T00:56:11.646Z,203
2018-11-14T00:56:24.024Z,211
2018-11-14T00:56:36.410Z,211
2018-11-14T00:56:48.806Z,212
2018-11-14T00:57:01.215Z,212
2018-11-14T00:57:13.651Z,212
2018-11-14T00:57:26.048Z,212
2018-11-14T00:57:38.554Z,212
2018-11-14T00:57:50.986Z,212
2018-11-14T00:58:03.411Z,212
2018-11-14T00:58:16.200Z,212
2018-11-14T00:58:28.575Z,192
2018-11-14T00:58:40.952Z,174
2018-11-14T00:58:53.401Z,174
2018-11-14T00:59:05.791Z,173
2018-11-14T00:59:18.183Z,175
2018-11-14T00:59:30.723Z,198
2018-11-14T00:59:43.121Z,220
2018-11-14T00:59:55.932Z,222
2018-11-14T01:00:09.880Z,222
2018-11-14T01:00:22.314Z,210
2018-11-14T01:00:34.736Z,198
2018-11-14T01:00:47.137Z,174
2018-11-14T01:00:59.567Z,203
2018-11-14T01:01:11.996Z,206
2018-11-14T01:01:24.945Z,194
2018-11-14T01:01:38.835Z,194
2018-11-14T01:01:52.555Z,212
2018-11-14T01:02:05.867Z,212
2018-11-14T01:02:18.269Z,179
2018-11-14T01:02:30.727Z,179
2018-11-14T01:02:45.254Z,234
2018-11-14T01:02:57.663Z,179
2018-11-14T01:03:10.108Z,180
2018-11-14T01:03:22.758Z,173
2018-11-14T01:03:35.182Z,173
2018-11-14T01:03:47.591Z,259
2018-11-14T01:03:59.968Z,259
2018-11-14T01:04:12.433Z,210
2018-11-14T01:04:24.988Z,213
2018-11-14T01:04:37.387Z,225
2018-11-14T01:04:49.803Z,225
2018-11-14T01:05:02.387Z,220
2018-11-14T01:05:14.773Z,198
2018-11-14T01:05:27.391Z,170
2018-11-14T01:05:39.766Z,170
2018-11-14T01:05:52.348Z,170
2018-11-14T01:06:04.758Z,179
2018-11-14T01:06:17.263Z,167
2018-11-14T01:06:29.672Z,167
2018-11-14T01:06:42.059Z,167
2018-11-14T01:06:54.484Z,167
2018-11-14T01:07:06.890Z,167
2018-11-14T01:07:19.373Z,199
2018-11-14T01:07:31.780Z,204
2018-11-14T01:07:44.197Z,209
2018-11-14T01:07:56.783Z,209
2018-11-14T01:08:09.172Z,209
2018-11-14T01:08:21.555Z,268
2018-11-14T01:08:34.116Z,268
2018-11-14T01:08:46.521Z,268
2018-11-14T01:08:58.910Z,268
2018-11-14T01:09:11.935Z,268
2018-11-14T01:09:25.306Z,268
2018-11-14T01:09:38.214Z,268
2018-11-14T01:09:50.729Z,248
2018-11-14T01:10:03.263Z,178
2018-11-14T01:10:15.672Z,194
2018-11-14T01:10:28.184Z,195
2018-11-14T01:10:40.572Z,195
2018-11-14T01:10:53.131Z,195
2018-11-14T01:11:05.521Z,195
2018-11-14T01:11:17.913Z,195
2018-11-14T01:11:30.573Z,219
2018-11-14T01:11:42.976Z,219
2018-11-14T01:11:55.371Z,219
2018-11-14T01:12:07.842Z,219
2018-11-14T01:12:21.359Z,219
2018-11-14T01:12:34.232Z,204
2018-11-14T01:12:46.610Z,248
2018-11-14T01:12:59.259Z,213
2018-11-14T01:13:12.893Z,204
2018-11-14T01:13:27.423Z,204
2018-11-14T01:13:39.968Z,204
2018-11-14T01:13:52.355Z,204
2018-11-14T01:14:04.751Z,204
2018-11-14T01:14:17.289Z,204
2018-11-14T01:14:29.682Z,240
2018-11-14T01:14:42.091Z,240
2018-11-14T01:14:54.481Z,215
2018-11-14T01:15:06.963Z,205
2018-11-14T01:15:19.347Z,192
2018-11-14T01:15:31.778Z,161
2018-11-14T01:15:44.183Z,173
2018-11-14T01:15:56.682Z,174
2018-11-14T01:16:09.082Z,227
2018-11-14T01:16:21.478Z,227
2018-11-14T01:16:33.877Z,227
2018-11-14T01:16:46.275Z,196
2018-11-14T01:16:58.666Z,184
2018-11-14T01:17:11.297Z,155
2018-11-14T01:17:24.331Z,157
2018-11-14T01:17:37.774Z,157
2018-11-14T01:17:50.318Z,200
2018-11-14T01:18:02.735Z,191
2018-11-14T01:18:15.905Z,208
2018-11-14T01:18:28.307Z,219
2018-11-14T01:18:40.686Z,219
2018-11-14T01:18:53.821Z,219
2018-11-14T01:19:06.212Z,188
2018-11-14T01:19:18.605Z,200
2018-11-14T01:19:31.856Z,158
2018-11-14T01:19:44.318Z,158
2018-11-14T01:19:56.706Z,161
2018-11-14T01:20:09.158Z,173
2018-11-14T01:20:21.539Z,202
2018-11-14T01:20:33.921Z,162
2018-11-14T01:20:46.363Z,198
2018-11-14T01:20:58.767Z,197
2018-11-14T01:21:11.170Z,220
2018-11-14T01:21:23.659Z,215
2018-11-14T01:21:36.400Z,220
2018-11-14T01:21:50.621Z,213
2018-11-14T01:22:03.027Z,213
2018-11-14T01:22:15.436Z,213
2018-11-14T01:22:27.870Z,213
2018-11-14T01:22:40.253Z,225
2018-11-14T01:22:52.685Z,225
2018-11-14T01:23:05.069Z,169
2018-11-14T01:23:17.466Z,157
2018-11-14T01:23:29.859Z,157
2018-11-14T01:23:42.275Z,157
2018-11-14T01:23:54.663Z,157
2018-11-14T01:24:07.054Z,217
2018-11-14T01:24:19.457Z,216
2018-11-14T01:24:31.865Z,216
2018-11-14T01:24:44.263Z,215
2018-11-14T01:24:56.651Z,182
2018-11-14T01:25:09.073Z,186
2018-11-14T01:25:21.727Z,201
2018-11-14T01:25:34.188Z,192
2018-11-14T01:25:46.584Z,192
2018-11-14T01:25:58.982Z,192
2018-11-14T01:26:11.981Z,218
2018-11-14T01:26:24.420Z,225
2018-11-14T01:26:36.809Z,225
2018-11-14T01:26:49.208Z,225
2018-11-14T01:27:02.036Z,248
2018-11-14T01:27:15.835Z,246
2018-11-14T01:27:29.421Z,170
2018-11-14T01:27:41.824Z,191
2018-11-14T01:27:54.266Z,187
2018-11-14T01:28:06.835Z,190
2018-11-14T01:28:19.222Z,163
2018-11-14T01:28:31.612Z,194
2018-11-14T01:28:44.013Z,254
2018-11-14T01:28:56.420Z,244
2018-11-14T01:29:08.955Z,249
2018-11-14T01:29:21.627Z,249
2018-11-14T01:29:34.030Z,249
2018-11-14T01:29:46.423Z,249
2018-11-14T01:29:58.829Z,249
2018-11-14T01:30:11.253Z,200
2018-11-14T01:30:23.675Z,152
2018-11-14T01:30:36.070Z,177
2018-11-14T01:30:48.527Z,215
2018-11-14T01:31:00.931Z,202
2018-11-14T01:31:13.321Z,202
2018-11-14T01:31:25.787Z,176
2018-11-14T01:31:38.189Z,213
2018-11-14T01:31:50.603Z,238
2018-11-14T01:32:03.012Z,238
2018-11-14T01:32:15.455Z,198
2018-11-14T01:32:27.859Z,198
2018-11-14T01:32:40.271Z,206
2018-11-14T01:32:52.668Z,209
2018-11-14T01:33:05.060Z,209
2018-11-14T01:33:17.451Z,239
2018-11-14T01:33:29.856Z,180
2018-11-14T01:33:42.306Z,180
2018-11-14T01:33:54.858Z,180
2018-11-14T01:34:08.144Z,180
2018-11-14T01:34:21.471Z,180
2018-11-14T01:34:33.859Z,180
2018-11-14T01:34:46.331Z,239
2018-11-14T01:34:58.731Z,150
2018-11-14T01:35:11.160Z,150
2018-11-14T01:35:23.600Z,188
2018-11-14T01:35:36.108Z,200
2018-11-14T01:35:49.002Z,200
2018-11-14T01:36:03.327Z,201
2018-11-14T01:36:15.717Z,201
2018-11-14T01:36:28.553Z,200
2018-11-14T01:36:40.941Z,200
2018-11-14T01:36:53.346Z,184
2018-11-14T01:37:05.780Z,184
2018-11-14T01:37:18.225Z,184
2018-11-14T01:37:30.623Z,185
2018-11-14T01:37:43.012Z,185
2018-11-14T01:37:55.454Z,223
2018-11-14T01:38:07.876Z,211
2018-11-14T01:38:20.283Z,211
2018-11-14T01:38:32.705Z,216
2018-11-14T01:38:45.095Z,216
2018-11-14T01:38:57.492Z,216
2018-11-14T01:39:09.941Z,216
2018-11-14T01:39:22.379Z,216
2018-11-14T01:39:34.806Z,216
2018-11-14T01:39:47.194Z,216
2018-11-14T01:39:59.585Z,216
2018-11-14T01:40:11.986Z,223
2018-11-14T01:40:24.377Z,179
2018-11-14T01:40:36.770Z,172
2018-11-14T01:40:49.169Z,171
2018-11-14T01:41:01.752Z,166
2018-11-14T01:41:14.796Z,167
2018-11-14T01:41:27.193Z,160
2018-11-14T01:41:39.598Z,157
2018-11-14T01:41:51.995Z,157
2018-11-14T01:42:04.401Z,157
2018-11-14T01:42:16.812Z,157
2018-11-14T01:42:29.211Z,157
2018-11-14T01:42:41.602Z,157
2018-11-14T01:42:54.082Z,157
2018-11-14T01:43:06.497Z,163
2018-11-14T01:43:18.889Z,163
2018-11-14T01:43:31.274Z,172
2018-11-14T01:43:43.663Z,194
2018-11-14T01:43:56.055Z,192
2018-11-14T01:44:08.431Z,165
2018-11-14T01:44:20.861Z,149
2018-11-14T01:44:33.574Z,213
2018-11-14T01:44:45.964Z,212
2018-11-14T01:44:58.435Z,207
2018-11-14T01:45:10.844Z,197
2018-11-14T01:45:23.369Z,188
2018-11-14T01:45:35.766Z,185
2018-11-14T01:45:48.167Z,244
2018-11-14T01:46:00.608Z,244
2018-11-14T01:46:13.012Z,257
2018-11-14T01:46:25.396Z,257
2018-11-14T01:46:37.789Z,257
2018-11-14T01:46:50.183Z,257
2018-11-14T01:47:02.584Z,318
2018-11-14T01:47:15.057Z,310
2018-11-14T01:47:27.448Z,310
2018-11-14T01:47:40.064Z,244
2018-11-14T01:47:52.448Z,256
2018-11-14T01:48:04.845Z,306
2018-11-14T01:48:17.227Z,249
2018-11-14T01:48:29.607Z,234
2018-11-14T01:48:42.021Z,232
2018-11-14T01:48:54.426Z,233
2018-11-14T01:49:06.822Z,232
2018-11-14T01:49:19.213Z,180
2018-11-14T01:49:31.611Z,177
2018-11-14T01:49:43.994Z,177
2018-11-14T01:49:56.757Z,177
2018-11-14T01:50:09.175Z,177
2018-11-14T01:50:21.596Z,177
2018-11-14T01:50:33.987Z,221
2018-11-14T01:50:46.374Z,176
2018-11-14T01:50:58.774Z,174
2018-11-14T01:51:11.165Z,242
2018-11-14T01:51:23.572Z,250
2018-11-14T01:51:35.961Z,195
2018-11-14T01:51:48.345Z,244
2018-11-14T01:52:00.841Z,261
2018-11-14T01:52:13.266Z,261
2018-11-14T01:52:25.680Z,261
2018-11-14T01:52:38.078Z,261
2018-11-14T01:52:50.505Z,261
2018-11-14T01:53:02.930Z,259
2018-11-14T01:53:15.374Z,198
2018-11-14T01:53:27.750Z,209
2018-11-14T01:53:40.295Z,175
2018-11-14T01:53:52.740Z,175
2018-11-14T01:54:05.202Z,289
2018-11-14T01:54:17.591Z,289
2018-11-14T01:54:29.980Z,289
2018-11-14T01:54:42.369Z,236
2018-11-14T01:54:54.923Z,269
2018-11-14T01:55:07.437Z,329
2018-11-14T01:55:19.881Z,292
2018-11-14T01:55:32.284Z,207
2018-11-14T01:55:44.687Z,206
2018-11-14T01:55:57.083Z,205
2018-11-14T01:56:09.468Z,220
2018-11-14T01:56:21.874Z,236
2018-11-14T01:56:34.279Z,236
2018-11-14T01:56:46.674Z,185
2018-11-14T01:56:59.060Z,185
2018-11-14T01:57:11.459Z,167
2018-11-14T01:57:23.853Z,167
2018-11-14T01:57:36.252Z,167
2018-11-14T01:57:48.655Z,167
2018-11-14T01:58:01.078Z,167
2018-11-14T01:58:13.479Z,167
2018-11-14T01:58:25.886Z,167
2018-11-14T01:58:38.278Z,179
2018-11-14T01:58:50.668Z,175
2018-11-14T01:59:03.068Z,202
2018-11-14T01:59:15.535Z,321
2018-11-14T01:59:27.949Z,251
2018-11-14T01:59:40.329Z,180
2018-11-14T01:59:52.738Z,180
2018-11-14T02:00:05.177Z,180
2018-11-14T02:00:17.607Z,212
2018-11-14T02:00:30.060Z,209
2018-11-14T02:00:42.480Z,221
2018-11-14T02:00:54.876Z,246
2018-11-14T02:01:07.304Z,179
2018-11-14T02:01:19.866Z,179
2018-11-14T02:01:32.275Z,188
2018-11-14T02:01:44.699Z,193
2018-11-14T02:01:57.128Z,260
2018-11-14T02:02:09.518Z,260
2018-11-14T02:02:21.907Z,260
2018-11-14T02:02:34.307Z,260
2018-11-14T02:02:46.687Z,259
2018-11-14T02:02:59.081Z,231
2018-11-14T02:03:11.482Z,243
2018-11-14T02:03:24.026Z,243
2018-11-14T02:03:36.421Z,92
2018-11-14T02:03:48.821Z,259
2018-11-14T02:04:01.211Z,232
2018-11-14T02:04:13.666Z,238
2018-11-14T02:04:26.057Z,234
2018-11-14T02:04:38.451Z,254
2018-11-14T02:04:50.981Z,272
2018-11-14T02:05:03.382Z,327
2018-11-14T02:05:15.821Z,332
2018-11-14T02:05:28.399Z,216
2018-11-14T02:05:40.801Z,248
2018-11-14T02:05:53.192Z,281
2018-11-14T02:06:05.590Z,270
2018-11-14T02:06:18.134Z,270
2018-11-14T02:06:30.545Z,270
2018-11-14T02:06:42.922Z,270
2018-11-14T02:06:55.310Z,253
2018-11-14T02:07:07.695Z,252
2018-11-14T02:07:20.192Z,228
2018-11-14T02:07:32.589Z,228
2018-11-14T02:07:44.997Z,228
2018-11-14T02:07:57.393Z,228
2018-11-14T02:08:09.803Z,229
2018-11-14T02:08:22.208Z,221
2018-11-14T02:08:34.598Z,223
2018-11-14T02:08:46.986Z,247
2018-11-14T02:08:59.363Z,218
2018-11-14T02:09:11.765Z,234
2018-11-14T02:09:24.163Z,248
2018-11-14T02:09:36.560Z,208
2018-11-14T02:09:48.947Z,208
2018-11-14T02:10:01.330Z,208
2018-11-14T02:10:13.798Z,297
2018-11-14T02:10:26.267Z,300
2018-11-14T02:10:38.650Z,300
2018-11-14T02:10:51.135Z,323
2018-11-14T02:11:03.539Z,340
2018-11-14T02:11:16.041Z,188
2018-11-14T02:11:28.447Z,188
2018-11-14T02:11:40.848Z,261
2018-11-14T02:11:53.234Z,336
2018-11-14T02:12:05.644Z,304
2018-11-14T02:12:18.057Z,208
2018-11-14T02:12:30.449Z,208
2018-11-14T02:12:42.858Z,299
2018-11-14T02:12:55.275Z,217
2018-11-14T02:13:07.675Z,116
2018-11-14T02:13:20.064Z,155
2018-11-14T02:13:32.452Z,218
2018-11-14T02:13:44.859Z,279
2018-11-14T02:13:57.275Z,323
2018-11-14T02:14:09.659Z,331
2018-11-14T02:14:22.046Z,256
2018-11-14T02:14:34.449Z,290
2018-11-14T02:14:46.989Z,239
2018-11-14T02:14:59.372Z,215
2018-11-14T02:15:11.774Z,295
2018-11-14T02:15:24.189Z,259
2018-11-14T02:15:36.586Z,303
2018-11-14T02:15:49.120Z,246
2018-11-14T02:16:01.510Z,242
2018-11-14T02:16:13.925Z,227
2018-11-14T02:16:26.317Z,227
2018-11-14T02:16:38.691Z,227
2018-11-14T02:16:51.143Z,227
2018-11-14T02:17:03.597Z,227
2018-11-14T02:17:16.049Z,223
2018-11-14T02:17:28.442Z,223
2018-11-14T02:17:40.872Z,223
2018-11-14T02:17:53.255Z,223
2018-11-14T02:18:05.669Z,223
2018-11-14T02:18:18.064Z,223
2018-11-14T02:18:30.465Z,223
2018-11-14T02:18:42.867Z,217
2018-11-14T02:18:55.252Z,173
2018-11-14T02:19:07.636Z,173
2018-11-14T02:19:20.031Z,173
2018-11-14T02:19:32.584Z,173
2018-11-14T02:19:45.005Z,249
2018-11-14T02:19:57.406Z,296
2018-11-14T02:20:09.910Z,228
2018-11-14T02:20:22.517Z,221
2018-11-14T02:20:34.907Z,221
2018-11-14T02:20:47.294Z,209
2018-11-14T02:20:59.739Z,209
2018-11-14T02:21:12.132Z,209
2018-11-14T02:21:24.521Z,322
2018-11-14T02:21:36.904Z,282
2018-11-14T02:21:49.297Z,282
2018-11-14T02:22:01.665Z,300
2018-11-14T02:22:14.061Z,300
2018-11-14T02:22:26.472Z,293
2018-11-14T02:22:38.865Z,269
2018-11-14T02:22:51.256Z,220
2018-11-14T02:23:03.646Z,219
2018-11-14T02:23:16.037Z,219
2018-11-14T02:23:28.422Z,218
2018-11-14T02:23:40.829Z,211
2018-11-14T02:23:53.215Z,302
2018-11-14T02:24:05.628Z,302
2018-11-14T02:24:18.006Z,302
2018-11-14T02:24:30.394Z,247
2018-11-14T02:24:42.800Z,176
2018-11-14T02:24:55.225Z,172
2018-11-14T02:25:07.623Z,172
2018-11-14T02:25:20.288Z,172
2018-11-14T02:25:32.695Z,172
2018-11-14T02:25:45.081Z,172
2018-11-14T02:25:57.469Z,172
2018-11-14T02:26:09.862Z,172
2018-11-14T02:26:22.305Z,184
2018-11-14T02:26:34.677Z,186
2018-11-14T02:26:47.070Z,186
2018-11-14T02:26:59.464Z,186
2018-11-14T02:27:11.906Z,186
2018-11-14T02:27:24.352Z,263
2018-11-14T02:27:36.738Z,212
2018-11-14T02:27:49.136Z,211
2018-11-14T02:28:01.508Z,216
2018-11-14T02:28:13.914Z,202
2018-11-14T02:28:26.304Z,204
2018-11-14T02:28:38.690Z,233
2018-11-14T02:28:51.100Z,309
2018-11-14T02:29:03.566Z,307
2018-11-14T02:29:16.071Z,307
2018-11-14T02:29:28.460Z,242
2018-11-14T02:29:40.865Z,191
2018-11-14T02:29:53.260Z,230
2018-11-14T02:30:05.714Z,223
2018-11-14T02:30:18.190Z,223
2018-11-14T02:30:30.646Z,223
2018-11-14T02:30:43.057Z,223
2018-11-14T02:30:55.479Z,270
2018-11-14T02:31:07.889Z,267
2018-11-14T02:31:20.322Z,278
2018-11-14T02:31:32.730Z,278
2018-11-14T02:31:45.151Z,278
2018-11-14T02:31:57.547Z,278
2018-11-14T02:32:09.974Z,278
2018-11-14T02:32:22.400Z,278
2018-11-14T02:32:34.830Z,278
2018-11-14T02:32:47.273Z,282
2018-11-14T02:32:59.711Z,266
2018-11-14T02:33:12.170Z,241
2018-11-14T02:33:24.566Z,241
2018-11-14T02:33:36.969Z,259
2018-11-14T02:33:49.372Z,259
2018-11-14T02:34:01.783Z,259
2018-11-14T02:34:14.250Z,259
2018-11-14T02:34:26.675Z,259
2018-11-14T02:34:39.072Z,259
2018-11-14T02:34:51.568Z,284
2018-11-14T02:35:04.069Z,254
2018-11-14T02:35:16.551Z,223
2018-11-14T02:35:29.267Z,180
2018-11-14T02:35:41.684Z,180
2018-11-14T02:35:54.079Z,205
2018-11-14T02:36:06.525Z,54
2018-11-14T02:36:18.948Z,33
2018-11-14T02:36:31.504Z,306
2018-11-14T02:36:43.937Z,219
2018-11-14T02:36:56.363Z,188
2018-11-14T02:37:08.848Z,242
2018-11-14T02:37:21.245Z,186
2018-11-14T02:37:34.512Z,158
2018-11-14T02:37:46.934Z,225
2018-11-14T02:37:59.812Z,227
2018-11-14T02:38:12.218Z,280
2018-11-14T02:38:24.624Z,184
2018-11-14T02:38:37.920Z,194
2018-11-14T02:38:50.322Z,178
2018-11-14T02:39:02.733Z,178
2018-11-14T02:39:15.166Z,178
2018-11-14T02:39:27.575Z,178
2018-11-14T02:39:39.967Z,260
2018-11-14T02:39:52.362Z,260
2018-11-14T02:40:04.777Z,263
2018-11-14T02:40:17.296Z,263
2018-11-14T02:40:29.714Z,263
2018-11-14T02:40:42.119Z,263
2018-11-14T02:40:54.560Z,237
2018-11-14T02:41:07.038Z,202
2018-11-14T02:41:19.446Z,271
2018-11-14T02:41:31.860Z,273
2018-11-14T02:41:44.258Z,313
2018-11-14T02:41:56.706Z,313
2018-11-14T02:42:09.107Z,313
2018-11-14T02:42:21.534Z,350
2018-11-14T02:42:33.955Z,350
2018-11-14T02:42:46.456Z,5
2018-11-14T02:42:58.897Z,5
2018-11-14T02:43:11.358Z,5
2018-11-14T02:43:23.774Z,10
2018-11-14T02:43:36.168Z,290
2018-11-14T02:43:48.595Z,288
2018-11-14T02:44:00.986Z,290
2018-11-14T02:44:13.377Z,284
2018-11-14T02:44:25.794Z,277
2018-11-14T02:44:38.196Z,277
2018-11-14T02:44:51.345Z,277
2018-11-14T02:45:03.754Z,277
2018-11-14T02:45:16.324Z,277
2018-11-14T02:45:28.736Z,280
2018-11-14T02:45:41.137Z,280
2018-11-14T02:45:53.557Z,280
2018-11-14T02:46:05.949Z,277
2018-11-14T02:46:18.373Z,270
2018-11-14T02:46:30.793Z,167
2018-11-14T02:46:43.215Z,209
2018-11-14T02:46:55.618Z,209
2018-11-14T02:47:08.436Z,209
2018-11-14T02:47:20.837Z,209
2018-11-14T02:47:33.235Z,232
2018-11-14T02:47:45.769Z,243
2018-11-14T02:47:58.184Z,261
2018-11-14T02:48:10.593Z,268
2018-11-14T02:48:23.049Z,263
2018-11-14T02:48:35.441Z,279
2018-11-14T02:48:47.848Z,263
2018-11-14T02:49:00.248Z,206
2018-11-14T02:49:12.656Z,150
2018-11-14T02:49:25.046Z,171
2018-11-14T02:49:37.443Z,209
2018-11-14T02:49:50.003Z,209
2018-11-14T02:50:02.583Z,209
2018-11-14T02:50:14.980Z,209
2018-11-14T02:50:27.460Z,209
2018-11-14T02:50:39.905Z,209
2018-11-14T02:50:52.315Z,209
2018-11-14T02:51:04.732Z,209
2018-11-14T02:51:17.146Z,196
2018-11-14T02:51:29.555Z,104
2018-11-14T02:51:41.969Z,260
2018-11-14T02:51:54.434Z,194
2018-11-14T02:52:07.024Z,196
2018-11-14T02:52:19.437Z,203